sensor_id;sensor_type;location;lat;lon;timestamp;pressure;altitude;pressure_sealevel;temperature;humidity
21594;BME280;10959;51.328;7.322;2023-02-13T00:00:42;100811.94;;;10.23;77.29
21594;BME280;10959;51.328;7.322;2023-02-13T00:03:09;100805.69;;;10.22;77.51
21594;BME280;10959;51.328;7.322;2023-02-13T00:05:35;100806.72;;;10.13;78.00
21594;BME280;10959;51.328;7.322;2023-02-13T00:08:03;100803.06;;;10.17;77.48
21594;BME280;10959;51.328;7.322;2023-02-13T00:10:30;100799.56;;;10.12;78.09
21594;BME280;10959;51.328;7.322;2023-02-13T00:12:57;100801.34;;;10.13;77.67
21594;BME280;10959;51.328;7.322;2023-02-13T00:15:23;100801.41;;;10.10;77.90
21594;BME280;10959;51.328;7.322;2023-02-13T00:17:49;100793.28;;;10.12;77.87
21594;BME280;10959;51.328;7.322;2023-02-13T00:20:16;100798.66;;;10.13;77.63
21594;BME280;10959;51.328;7.322;2023-02-13T00:22:43;100803.19;;;10.08;78.08
21594;BME280;10959;51.328;7.322;2023-02-13T00:25:11;100808.75;;;9.99;78.10
21594;BME280;10959;51.328;7.322;2023-02-13T00:27:37;100803.47;;;9.90;78.40
21594;BME280;10959;51.328;7.322;2023-02-13T00:30:06;100797.19;;;9.91;78.20
21594;BME280;10959;51.328;7.322;2023-02-13T00:32:33;100794.50;;;9.91;78.54
21594;BME280;10959;51.328;7.322;2023-02-13T00:34:59;100798.09;;;9.90;78.45
21594;BME280;10959;51.328;7.322;2023-02-13T00:37:26;100796.31;;;9.89;78.37
21594;BME280;10959;51.328;7.322;2023-02-13T00:39:52;100796.47;;;9.79;78.39
21594;BME280;10959;51.328;7.322;2023-02-13T00:42:21;100791.94;;;9.81;77.85
21594;BME280;10959;51.328;7.322;2023-02-13T00:44:50;100794.56;;;9.88;77.95
21594;BME280;10959;51.328;7.322;2023-02-13T00:47:17;100796.38;;;9.85;78.28
21594;BME280;10959;51.328;7.322;2023-02-13T00:49:43;100798.25;;;9.80;78.16
21594;BME280;10959;51.328;7.322;2023-02-13T00:52:10;100792.88;;;9.77;78.56
21594;BME280;10959;51.328;7.322;2023-02-13T00:54:37;100783.91;;;9.78;78.54
21594;BME280;10959;51.328;7.322;2023-02-13T00:57:03;100787.47;;;9.80;78.21
21594;BME280;10959;51.328;7.322;2023-02-13T00:59:31;100784.72;;;9.85;77.81
21594;BME280;10959;51.328;7.322;2023-02-13T01:01:57;100792.78;;;9.85;78.34
21594;BME280;10959;51.328;7.322;2023-02-13T01:04:24;100791.84;;;9.89;77.67
21594;BME280;10959;51.328;7.322;2023-02-13T01:06:50;100790.94;;;9.89;78.18
21594;BME280;10959;51.328;7.322;2023-02-13T01:09:17;100783.81;;;9.86;78.02
21594;BME280;10959;51.328;7.322;2023-02-13T01:11:43;100790.97;;;9.85;78.17
21594;BME280;10959;51.328;7.322;2023-02-13T01:14:10;100791.88;;;9.86;77.96
21594;BME280;10959;51.328;7.322;2023-02-13T01:16:37;100794.50;;;9.91;78.13
21594;BME280;10959;51.328;7.322;2023-02-13T01:19:04;100795.44;;;9.88;77.81
21594;BME280;10959;51.328;7.322;2023-02-13T01:21:30;100790.91;;;9.92;78.21
21594;BME280;10959;51.328;7.322;2023-02-13T01:23:57;100786.41;;;9.92;77.51
21594;BME280;10959;51.328;7.322;2023-02-13T01:26:24;100787.47;;;9.80;78.25
21594;BME280;10959;51.328;7.322;2023-02-13T01:28:51;100787.31;;;9.91;77.94
21594;BME280;10959;51.328;7.322;2023-02-13T01:31:19;100783.75;;;9.91;77.67
21594;BME280;10959;51.328;7.322;2023-02-13T01:33:47;100783.78;;;9.88;77.84
21594;BME280;10959;51.328;7.322;2023-02-13T01:36:13;100782.13;;;9.79;78.02
21594;BME280;10959;51.328;7.322;2023-02-13T01:38:40;100774.00;;;9.82;77.96
21594;BME280;10959;51.328;7.322;2023-02-13T01:41:08;100784.09;;;9.66;78.56
21594;BME280;10959;51.328;7.322;2023-02-13T01:43:50;100788.75;;;9.53;78.59
21594;BME280;10959;51.328;7.322;2023-02-13T01:46:21;100780.56;;;9.61;78.29
21594;BME280;10959;51.328;7.322;2023-02-13T01:48:52;100786.06;;;9.55;78.58
21594;BME280;10959;51.328;7.322;2023-02-13T01:51:23;100784.16;;;9.60;78.53
21594;BME280;10959;51.328;7.322;2023-02-13T01:53:55;100781.56;;;9.54;78.41
21594;BME280;10959;51.328;7.322;2023-02-13T01:56:26;100781.56;;;9.55;78.63
21594;BME280;10959;51.328;7.322;2023-02-13T01:58:58;100784.31;;;9.50;78.65
21594;BME280;10959;51.328;7.322;2023-02-13T02:01:26;100780.63;;;9.58;78.64
21594;BME280;10959;51.328;7.322;2023-02-13T02:03:57;100774.31;;;9.60;78.85
21594;BME280;10959;51.328;7.322;2023-02-13T02:06:26;100777.91;;;9.59;78.99
21594;BME280;10959;51.328;7.322;2023-02-13T02:08:54;100779.72;;;9.57;78.49
21594;BME280;10959;51.328;7.322;2023-02-13T02:11:29;100771.72;;;9.52;78.62
21594;BME280;10959;51.328;7.322;2023-02-13T02:13:57;100780.56;;;9.61;78.38
21594;BME280;10959;51.328;7.322;2023-02-13T02:16:24;100773.41;;;9.60;78.71
21594;BME280;10959;51.328;7.322;2023-02-13T02:18:51;100777.00;;;9.59;78.69
21594;BME280;10959;51.328;7.322;2023-02-13T02:21:45;100774.56;;;9.39;78.78
21594;BME280;10959;51.328;7.322;2023-02-13T02:24:39;100772.81;;;9.38;78.47
21594;BME280;10959;51.328;7.322;2023-02-13T02:27:18;100766.59;;;9.34;78.69
21594;BME280;10959;51.328;7.322;2023-02-13T02:30:10;100776.50;;;9.27;79.24
21594;BME280;10959;51.328;7.322;2023-02-13T02:32:56;100766.53;;;9.37;78.51
21594;BME280;10959;51.328;7.322;2023-02-13T02:35:33;100780.91;;;9.36;78.49
21594;BME280;10959;51.328;7.322;2023-02-13T02:38:14;100770.16;;;9.36;78.54
21594;BME280;10959;51.328;7.322;2023-02-13T02:40:50;100772.84;;;9.36;78.40
21594;BME280;10959;51.328;7.322;2023-02-13T02:43:27;100772.00;;;9.31;78.78
21594;BME280;10959;51.328;7.322;2023-02-13T02:46:03;100770.16;;;9.36;78.21
21594;BME280;10959;51.328;7.322;2023-02-13T02:48:42;100770.16;;;9.36;78.11
21594;BME280;10959;51.328;7.322;2023-02-13T02:51:32;100764.78;;;9.36;78.43
21594;BME280;10959;51.328;7.322;2023-02-13T02:54:07;100759.47;;;9.30;78.35
21594;BME280;10959;51.328;7.322;2023-02-13T02:56:51;100759.47;;;9.30;78.63
21594;BME280;10959;51.328;7.322;2023-02-13T02:59:19;100765.72;;;9.32;78.44
21594;BME280;10959;51.328;7.322;2023-02-13T03:02:07;100764.88;;;9.27;78.35
21594;BME280;10959;51.328;7.322;2023-02-13T03:05:15;100768.75;;;9.04;78.61
21594;BME280;10959;51.328;7.322;2023-02-13T03:08:01;100760.47;;;9.21;78.64
21594;BME280;10959;51.328;7.322;2023-02-13T03:10:31;100757.81;;;9.20;78.36
21594;BME280;10959;51.328;7.322;2023-02-13T03:13:33;100759.72;;;9.08;78.79
21594;BME280;10959;51.328;7.322;2023-02-13T03:16:03;100752.28;;;9.32;78.48
21594;BME280;10959;51.328;7.322;2023-02-13T03:18:51;100759.59;;;9.21;78.73
21594;BME280;10959;51.328;7.322;2023-02-13T03:21:46;100752.47;;;9.16;78.42
21594;BME280;10959;51.328;7.322;2023-02-13T03:24:37;100751.50;;;9.24;78.46
21594;BME280;10959;51.328;7.322;2023-02-13T03:27:11;100759.41;;;9.33;78.30
21594;BME280;10959;51.328;7.322;2023-02-13T03:29:47;100756.72;;;9.36;78.51
21594;BME280;10959;51.328;7.322;2023-02-13T03:32:38;100753.28;;;9.25;78.58
21594;BME280;10959;51.328;7.322;2023-02-13T03:35:18;100759.59;;;9.21;78.65
21594;BME280;10959;51.328;7.322;2023-02-13T03:38:09;100768.56;;;9.20;78.55
21594;BME280;10959;51.328;7.322;2023-02-13T03:40:42;100763.09;;;9.26;78.78
21594;BME280;10959;51.328;7.322;2023-02-13T03:43:28;100770.38;;;9.18;78.82
21594;BME280;10959;51.328;7.322;2023-02-13T03:45:58;100768.69;;;9.10;79.39
21594;BME280;10959;51.328;7.322;2023-02-13T03:48:29;100759.72;;;9.08;79.60
21594;BME280;10959;51.328;7.322;2023-02-13T03:51:18;100772.34;;;9.03;79.87
21594;BME280;10959;51.328;7.322;2023-02-13T03:53:50;100774.13;;;9.04;79.53
21594;BME280;10959;51.328;7.322;2023-02-13T03:56:18;100766.84;;;9.12;79.48
21594;BME280;10959;51.328;7.322;2023-02-13T03:59:08;100766.03;;;9.09;79.62
21594;BME280;10959;51.328;7.322;2023-02-13T04:01:56;100767.81;;;9.07;79.39
21594;BME280;10959;51.328;7.322;2023-02-13T04:04:29;100767.78;;;9.08;79.49
21594;BME280;10959;51.328;7.322;2023-02-13T04:07:01;100769.47;;;9.17;79.76
21594;BME280;10959;51.328;7.322;2023-02-13T04:09:31;100766.81;;;9.15;79.57
21594;BME280;10959;51.328;7.322;2023-02-13T04:12:05;100770.56;;;9.02;79.84
21594;BME280;10959;51.328;7.322;2023-02-13T04:14:37;100765.22;;;8.99;79.80
21594;BME280;10959;51.328;7.322;2023-02-13T04:17:08;100772.28;;;9.09;79.89
21594;BME280;10959;51.328;7.322;2023-02-13T04:19:36;100768.50;;;9.23;79.71
21594;BME280;10959;51.328;7.322;2023-02-13T04:22:03;100776.69;;;9.15;79.97
21594;BME280;10959;51.328;7.322;2023-02-13T04:24:31;100764.94;;;9.24;79.64
21594;BME280;10959;51.328;7.322;2023-02-13T04:26:57;100773.00;;;9.24;79.37
21594;BME280;10959;51.328;7.322;2023-02-13T04:29:25;100768.56;;;9.20;79.43
21594;BME280;10959;51.328;7.322;2023-02-13T04:31:51;100765.97;;;9.13;79.68
21594;BME280;10959;51.328;7.322;2023-02-13T04:34:18;100763.31;;;9.07;80.38
21594;BME280;10959;51.328;7.322;2023-02-13T04:36:44;100770.44;;;9.11;79.91
21594;BME280;10959;51.328;7.322;2023-02-13T04:39:10;100764.06;;;9.20;80.10
21594;BME280;10959;51.328;7.322;2023-02-13T04:41:38;100765.81;;;9.24;79.71
21594;BME280;10959;51.328;7.322;2023-02-13T04:44:05;100766.59;;;9.32;79.26
21594;BME280;10959;51.328;7.322;2023-02-13T04:46:31;100764.78;;;9.36;79.28
21594;BME280;10959;51.328;7.322;2023-02-13T04:48:58;100766.53;;;9.40;79.09
21594;BME280;10959;51.328;7.322;2023-02-13T04:51:24;100762.06;;;9.39;79.22
21594;BME280;10959;51.328;7.322;2023-02-13T04:53:51;100763.03;;;9.32;79.44
21594;BME280;10959;51.328;7.322;2023-02-13T04:56:17;100756.00;;;9.22;79.21
21594;BME280;10959;51.328;7.322;2023-02-13T04:58:45;100757.84;;;9.16;79.45
21594;BME280;10959;51.328;7.322;2023-02-13T05:01:12;100758.78;;;9.14;80.10
21594;BME280;10959;51.328;7.322;2023-02-13T05:03:39;100758.75;;;9.15;79.84
21594;BME280;10959;51.328;7.322;2023-02-13T05:06:06;100756.06;;;9.15;79.59
21594;BME280;10959;51.328;7.322;2023-02-13T05:08:32;100757.81;;;9.20;79.50
21594;BME280;10959;51.328;7.322;2023-02-13T05:10:59;100756.06;;;9.15;79.61
21594;BME280;10959;51.328;7.322;2023-02-13T05:13:25;100750.78;;;9.09;79.77
21594;BME280;10959;51.328;7.322;2023-02-13T05:15:53;100747.16;;;9.12;79.41
21594;BME280;10959;51.328;7.322;2023-02-13T05:18:19;100752.56;;;9.10;79.88
21594;BME280;10959;51.328;7.322;2023-02-13T05:20:46;100756.09;;;9.12;80.03
21594;BME280;10959;51.328;7.322;2023-02-13T05:23:33;100756.19;;;9.06;80.30
21594;BME280;10959;51.328;7.322;2023-02-13T05:25:59;100754.28;;;9.14;80.01
21594;BME280;10959;51.328;7.322;2023-02-13T05:28:25;100763.22;;;9.16;79.54
21594;BME280;10959;51.328;7.322;2023-02-13T05:31:11;100754.28;;;9.14;79.62
21594;BME280;10959;51.328;7.322;2023-02-13T05:33:38;100754.25;;;9.18;79.68
21594;BME280;10959;51.328;7.322;2023-02-13T05:36:05;100748.91;;;9.14;79.64
21594;BME280;10959;51.328;7.322;2023-02-13T05:38:31;100743.53;;;9.14;79.12
21594;BME280;10959;51.328;7.322;2023-02-13T05:40:58;100745.34;;;9.12;79.25
21594;BME280;10959;51.328;7.322;2023-02-13T05:43:25;100745.41;;;9.09;79.62
21594;BME280;10959;51.328;7.322;2023-02-13T05:45:51;100740.28;;;8.88;80.48
21594;BME280;10959;51.328;7.322;2023-02-13T05:48:27;100741.13;;;8.91;79.79
21594;BME280;10959;51.328;7.322;2023-02-13T05:50:53;100743.78;;;8.96;79.86
21594;BME280;10959;51.328;7.322;2023-02-13T05:53:20;100747.38;;;8.95;79.81
21594;BME280;10959;51.328;7.322;2023-02-13T05:55:46;100747.31;;;8.98;79.77
21594;BME280;10959;51.328;7.322;2023-02-13T05:58:12;100743.75;;;8.99;79.96
21594;BME280;10959;51.328;7.322;2023-02-13T06:00:39;100740.13;;;9.00;79.91
21594;BME280;10959;51.328;7.322;2023-02-13T06:03:05;100741.94;;;8.98;79.57
21594;BME280;10959;51.328;7.322;2023-02-13T06:05:33;100743.75;;;8.99;79.18
21594;BME280;10959;51.328;7.322;2023-02-13T06:08:00;100751.88;;;8.91;79.23
21594;BME280;10959;51.328;7.322;2023-02-13T06:10:26;100746.56;;;8.87;79.85
21594;BME280;10959;51.328;7.322;2023-02-13T06:12:52;100745.69;;;8.81;79.73
21594;BME280;10959;51.328;7.322;2023-02-13T06:15:19;100738.53;;;8.84;79.56
21594;BME280;10959;51.328;7.322;2023-02-13T06:17:45;100742.97;;;8.88;79.50
21594;BME280;10959;51.328;7.322;2023-02-13T06:20:12;100744.00;;;8.77;79.60
21594;BME280;10959;51.328;7.322;2023-02-13T06:22:40;100741.22;;;8.84;79.69
21594;BME280;10959;51.328;7.322;2023-02-13T06:25:06;100740.34;;;8.83;79.96
21594;BME280;10959;51.328;7.322;2023-02-13T06:27:33;100740.34;;;8.81;79.80
21594;BME280;10959;51.328;7.322;2023-02-13T06:29:59;100738.50;;;8.87;79.69
21594;BME280;10959;51.328;7.322;2023-02-13T06:32:26;100738.63;;;8.77;79.42
21594;BME280;10959;51.328;7.322;2023-02-13T06:34:52;100745.78;;;8.75;79.90
21594;BME280;10959;51.328;7.322;2023-02-13T06:37:19;100738.59;;;8.76;79.98
21594;BME280;10959;51.328;7.322;2023-02-13T06:39:46;100736.88;;;8.73;79.77
21594;BME280;10959;51.328;7.322;2023-02-13T06:42:13;100737.81;;;8.68;79.74
21594;BME280;10959;51.328;7.322;2023-02-13T06:44:39;100735.16;;;8.63;79.85
21594;BME280;10959;51.328;7.322;2023-02-13T06:47:06;100740.53;;;8.63;79.41
21594;BME280;10959;51.328;7.322;2023-02-13T06:49:32;100738.72;;;8.65;79.68
21594;BME280;10959;51.328;7.322;2023-02-13T06:51:59;100726.28;;;8.58;79.97
21594;BME280;10959;51.328;7.322;2023-02-13T06:54:25;100739.66;;;8.62;79.32
21594;BME280;10959;51.328;7.322;2023-02-13T06:56:53;100736.06;;;8.65;79.40
21594;BME280;10959;51.328;7.322;2023-02-13T06:59:19;100740.53;;;8.63;79.50
21594;BME280;10959;51.328;7.322;2023-02-13T07:01:46;100738.78;;;8.62;79.67
21594;BME280;10959;51.328;7.322;2023-02-13T07:04:13;100738.81;;;8.56;79.96
21594;BME280;10959;51.328;7.322;2023-02-13T07:06:39;100740.72;;;8.47;79.72
21594;BME280;10959;51.328;7.322;2023-02-13T07:09:06;100746.03;;;8.51;79.89
21594;BME280;10959;51.328;7.322;2023-02-13T07:11:32;100747.84;;;8.52;79.47
21594;BME280;10959;51.328;7.322;2023-02-13T07:14:00;100751.44;;;8.47;79.76
21594;BME280;10959;51.328;7.322;2023-02-13T07:16:27;100747.78;;;8.55;79.41
21594;BME280;10959;51.328;7.322;2023-02-13T07:18:53;100749.56;;;8.56;79.55
21594;BME280;10959;51.328;7.322;2023-02-13T07:21:20;100757.59;;;8.56;79.32
21594;BME280;10959;51.328;7.322;2023-02-13T07:23:46;100754.94;;;8.56;79.76
21594;BME280;10959;51.328;7.322;2023-02-13T07:26:13;100760.38;;;8.50;80.11
21594;BME280;10959;51.328;7.322;2023-02-13T07:28:40;100757.63;;;8.54;79.68
21594;BME280;10959;51.328;7.322;2023-02-13T07:31:08;100754.84;;;8.65;79.13
21594;BME280;10959;51.328;7.322;2023-02-13T07:33:36;100754.88;;;8.62;79.67
21594;BME280;10959;51.328;7.322;2023-02-13T07:36:03;100748.50;;;8.74;79.34
21594;BME280;10959;51.328;7.322;2023-02-13T07:38:30;100756.47;;;8.78;78.99
21594;BME280;10959;51.328;7.322;2023-02-13T07:40:57;100754.69;;;8.80;78.86
21594;BME280;10959;51.328;7.322;2023-02-13T07:43:24;100751.84;;;8.93;78.68
21594;BME280;10959;51.328;7.322;2023-02-13T07:45:51;100750.81;;;9.06;78.65
21594;BME280;10959;51.328;7.322;2023-02-13T07:48:21;100754.28;;;9.16;78.26
21594;BME280;10959;51.328;7.322;2023-02-13T07:50:47;100761.34;;;9.25;77.56
21594;BME280;10959;51.328;7.322;2023-02-13T07:53:14;100757.72;;;9.29;78.15
21594;BME280;10959;51.328;7.322;2023-02-13T07:55:40;100759.31;;;9.42;78.02
21594;BME280;10959;51.328;7.322;2023-02-13T07:58:06;100757.41;;;9.50;77.48
21594;BME280;10959;51.328;7.322;2023-02-13T08:00:33;100763.50;;;9.63;76.72
21594;BME280;10959;51.328;7.322;2023-02-13T08:03:00;100772.19;;;9.82;76.49
21594;BME280;10959;51.328;7.322;2023-02-13T08:05:30;100764.13;;;9.82;76.34
21594;BME280;10959;51.328;7.322;2023-02-13T08:07:57;100774.78;;;9.89;76.17
21594;BME280;10959;51.328;7.322;2023-02-13T08:10:24;100772.06;;;9.90;75.81
21594;BME280;10959;51.328;7.322;2023-02-13T08:13:10;100763.91;;;9.98;75.88
21594;BME280;10959;51.328;7.322;2023-02-13T08:15:38;100767.38;;;10.06;75.74
21594;BME280;10959;51.328;7.322;2023-02-13T08:18:05;100774.09;;;10.35;75.92
21594;BME280;10959;51.328;7.322;2023-02-13T08:20:33;100773.78;;;10.53;74.98
21594;BME280;10959;51.328;7.322;2023-02-13T08:23:04;100766.47;;;10.59;74.40
21594;BME280;10959;51.328;7.322;2023-02-13T08:25:30;100767.94;;;10.78;74.27
21594;BME280;10959;51.328;7.322;2023-02-13T08:27:57;100773.09;;;10.91;73.73
21594;BME280;10959;51.328;7.322;2023-02-13T08:30:24;100770.06;;;11.07;73.88
21594;BME280;10959;51.328;7.322;2023-02-13T08:32:51;100774.25;;;11.22;73.85
21594;BME280;10959;51.328;7.322;2023-02-13T08:35:17;100768.53;;;11.38;73.20
21594;BME280;10959;51.328;7.322;2023-02-13T08:37:45;100769.97;;;11.54;72.98
21594;BME280;10959;51.328;7.322;2023-02-13T08:40:12;100780.34;;;11.73;72.08
21594;BME280;10959;51.328;7.322;2023-02-13T08:42:39;100774.75;;;11.82;72.18
21594;BME280;10959;51.328;7.322;2023-02-13T08:45:06;100772.66;;;11.97;72.32
21594;BME280;10959;51.328;7.322;2023-02-13T08:47:34;100767.69;;;12.16;72.01
21594;BME280;10959;51.328;7.322;2023-02-13T08:50:01;100771.97;;;12.24;71.00
21594;BME280;10959;51.328;7.322;2023-02-13T08:52:27;100770.84;;;12.35;70.15
21594;BME280;10959;51.328;7.322;2023-02-13T08:54:55;100767.19;;;12.36;69.80
21594;BME280;10959;51.328;7.322;2023-02-13T08:57:22;100767.97;;;12.41;69.71
21594;BME280;10959;51.328;7.322;2023-02-13T08:59:48;100775.16;;;12.42;67.77
21594;BME280;10959;51.328;7.322;2023-02-13T09:02:15;100775.25;;;12.39;67.54
21594;BME280;10959;51.328;7.322;2023-02-13T09:04:41;100777.25;;;12.31;67.68
21594;BME280;10959;51.328;7.322;2023-02-13T09:07:08;100770.50;;;12.47;68.25
21594;BME280;10959;51.328;7.322;2023-02-13T09:09:34;100770.81;;;12.71;68.89
21594;BME280;10959;51.328;7.322;2023-02-13T09:12:02;100779.44;;;12.85;68.37
21594;BME280;10959;51.328;7.322;2023-02-13T09:14:29;100779.09;;;12.98;66.62
21594;BME280;10959;51.328;7.322;2023-02-13T09:16:55;100784.16;;;13.10;67.00
21594;BME280;10959;51.328;7.322;2023-02-13T09:19:22;100777.22;;;13.00;64.72
21594;BME280;10959;51.328;7.322;2023-02-13T09:21:48;100775.88;;;13.14;65.79
21594;BME280;10959;51.328;7.322;2023-02-13T09:24:15;100774.78;;;13.23;65.59
21594;BME280;10959;51.328;7.322;2023-02-13T09:26:41;100774.47;;;13.32;65.30
21594;BME280;10959;51.328;7.322;2023-02-13T09:29:09;100773.03;;;13.52;66.41
21594;BME280;10959;51.328;7.322;2023-02-13T09:31:36;100769.88;;;13.68;66.16
21594;BME280;10959;51.328;7.322;2023-02-13T09:34:02;100771.25;;;13.81;66.36
21594;BME280;10959;51.328;7.322;2023-02-13T09:36:29;100769.75;;;14.00;65.53
21594;BME280;10959;51.328;7.322;2023-02-13T09:38:56;100764.41;;;13.97;65.02
21594;BME280;10959;51.328;7.322;2023-02-13T09:41:25;100770.56;;;14.03;64.47
21594;BME280;10959;51.328;7.322;2023-02-13T09:43:55;100768.41;;;14.14;64.17
21594;BME280;10959;51.328;7.322;2023-02-13T09:46:30;100774.41;;;14.24;63.84
21594;BME280;10959;51.328;7.322;2023-02-13T09:49:00;100774.88;;;14.37;63.61
21594;BME280;10959;51.328;7.322;2023-02-13T09:51:30;100766.22;;;14.25;63.79
21594;BME280;10959;51.328;7.322;2023-02-13T09:53:58;100767.56;;;14.39;63.00
21594;BME280;10959;51.328;7.322;2023-02-13T09:56:36;100764.56;;;14.21;61.89
21594;BME280;10959;51.328;7.322;2023-02-13T09:59:12;100768.94;;;14.25;62.44
21594;BME280;10959;51.328;7.322;2023-02-13T10:01:46;100766.13;;;14.28;62.85
21594;BME280;10959;51.328;7.322;2023-02-13T10:04:28;100773.00;;;14.39;62.83
21594;BME280;10959;51.328;7.322;2023-02-13T10:07:17;100773.97;;;14.64;61.93
21594;BME280;10959;51.328;7.322;2023-02-13T10:09:52;100770.66;;;14.81;61.16
21594;BME280;10959;51.328;7.322;2023-02-13T10:12:47;100771.66;;;14.79;61.82
21594;BME280;10959;51.328;7.322;2023-02-13T10:15:20;100780.78;;;15.01;60.20
21594;BME280;10959;51.328;7.322;2023-02-13T10:17:54;100783.31;;;15.08;59.68
21594;BME280;10959;51.328;7.322;2023-02-13T10:20:27;100781.06;;;15.19;59.57
21594;BME280;10959;51.328;7.322;2023-02-13T10:22:59;100784.50;;;15.24;59.25
21594;BME280;10959;51.328;7.322;2023-02-13T10:25:32;100782.50;;;15.29;59.05
21594;BME280;10959;51.328;7.322;2023-02-13T10:28:05;100782.25;;;15.35;59.63
21594;BME280;10959;51.328;7.322;2023-02-13T10:30:42;100781.94;;;15.45;59.30
21594;BME280;10959;51.328;7.322;2023-02-13T10:33:16;100778.72;;;15.57;58.38
21594;BME280;10959;51.328;7.322;2023-02-13T10:35:46;100780.53;;;15.82;58.83
21594;BME280;10959;51.328;7.322;2023-02-13T10:38:17;100776.50;;;15.92;59.08
21594;BME280;10959;51.328;7.322;2023-02-13T10:41:02;100779.91;;;15.97;59.16
21594;BME280;10959;51.328;7.322;2023-02-13T10:43:37;100771.97;;;16.15;58.36
21594;BME280;10959;51.328;7.322;2023-02-13T10:46:12;100778.78;;;16.25;58.45
21594;BME280;10959;51.328;7.322;2023-02-13T10:48:58;100778.50;;;16.31;58.00
21594;BME280;10959;51.328;7.322;2023-02-13T10:51:32;100779.66;;;16.48;57.19
21594;BME280;10959;51.328;7.322;2023-02-13T10:54:17;100780.72;;;16.44;57.11
21594;BME280;10959;51.328;7.322;2023-02-13T10:56:52;100771.38;;;16.71;56.26
21594;BME280;10959;51.328;7.322;2023-02-13T10:59:39;100773.44;;;16.66;56.53
21594;BME280;10959;51.328;7.322;2023-02-13T11:02:20;100765.69;;;16.78;56.53
21594;BME280;10959;51.328;7.322;2023-02-13T11:04:51;100764.47;;;17.05;55.97
21594;BME280;10959;51.328;7.322;2023-02-13T11:07:20;100768.94;;;17.27;55.17
21594;BME280;10959;51.328;7.322;2023-02-13T11:09:48;100755.56;;;17.41;54.06
21594;BME280;10959;51.328;7.322;2023-02-13T11:12:25;100758.06;;;17.46;54.62
21594;BME280;10959;51.328;7.322;2023-02-13T11:14:56;100761.69;;;17.66;54.25
21594;BME280;10959;51.328;7.322;2023-02-13T11:17:25;100756.78;;;17.74;52.85
21594;BME280;10959;51.328;7.322;2023-02-13T11:19:55;100748.38;;;17.78;52.77
21594;BME280;10959;51.328;7.322;2023-02-13T11:22:30;100745.13;;;17.70;53.83
21594;BME280;10959;51.328;7.322;2023-02-13T11:25:01;100736.59;;;17.97;53.59
21594;BME280;10959;51.328;7.322;2023-02-13T11:27:31;100736.78;;;18.11;52.16
21594;BME280;10959;51.328;7.322;2023-02-13T11:30:00;100736.81;;;18.29;52.27
21594;BME280;10959;51.328;7.322;2023-02-13T11:32:28;100732.69;;;18.39;52.21
21594;BME280;10959;51.328;7.322;2023-02-13T11:34:56;100741.19;;;18.51;53.09
21594;BME280;10959;51.328;7.322;2023-02-13T11:37:26;100733.47;;;18.59;51.52
21594;BME280;10959;51.328;7.322;2023-02-13T11:39:55;100730.91;;;18.73;49.01
21594;BME280;10959;51.328;7.322;2023-02-13T11:42:29;100737.03;;;18.61;50.67
21594;BME280;10959;51.328;7.322;2023-02-13T11:44:59;100731.13;;;18.86;50.93
21594;BME280;10959;51.328;7.322;2023-02-13T11:47:32;100733.84;;;18.88;50.64
21594;BME280;10959;51.328;7.322;2023-02-13T11:50:00;100732.22;;;19.01;49.97
21594;BME280;10959;51.328;7.322;2023-02-13T11:52:29;100737.41;;;19.06;49.78
21594;BME280;10959;51.328;7.322;2023-02-13T11:54:57;100728.81;;;19.13;49.67
21594;BME280;10959;51.328;7.322;2023-02-13T11:57:28;100721.97;;;19.22;50.81
21594;BME280;10959;51.328;7.322;2023-02-13T11:59:56;100716.53;;;19.38;49.61
21594;BME280;10959;51.328;7.322;2023-02-13T12:02:24;100720.78;;;19.44;47.35
21594;BME280;10959;51.328;7.322;2023-02-13T12:04:52;100711.69;;;19.43;48.27
21594;BME280;10959;51.328;7.322;2023-02-13T12:07:22;100723.41;;;19.45;48.88
21594;BME280;10959;51.328;7.322;2023-02-13T12:09:54;100710.22;;;19.54;48.41
21594;BME280;10959;51.328;7.322;2023-02-13T12:12:27;100709.84;;;19.60;48.94
21594;BME280;10959;51.328;7.322;2023-02-13T12:14:56;100698.38;;;19.69;48.11
21594;BME280;10959;51.328;7.322;2023-02-13T12:17:25;100710.91;;;19.73;49.41
21594;BME280;10959;51.328;7.322;2023-02-13T12:19:53;100705.94;;;19.81;46.69
21594;BME280;10959;51.328;7.322;2023-02-13T12:22:38;100700.69;;;19.61;48.63
21594;BME280;10959;51.328;7.322;2023-02-13T12:25:27;100702.28;;;19.65;48.43
21594;BME280;10959;51.328;7.322;2023-02-13T12:28:11;100700.69;;;19.61;48.42
21594;BME280;10959;51.328;7.322;2023-02-13T12:31:00;100695.50;;;19.72;49.16
21594;BME280;10959;51.328;7.322;2023-02-13T12:33:49;100694.22;;;19.79;47.85
21594;BME280;10959;51.328;7.322;2023-02-13T12:36:20;100685.34;;;20.06;47.26
21594;BME280;10959;51.328;7.322;2023-02-13T12:39:03;100682.13;;;19.99;48.44
21594;BME280;10959;51.328;7.322;2023-02-13T12:41:37;100671.22;;;20.14;47.77
21594;BME280;10959;51.328;7.322;2023-02-13T12:44:34;100679.19;;;20.02;47.47
21594;BME280;10959;51.328;7.322;2023-02-13T12:47:12;100678.31;;;20.02;46.34
21594;BME280;10959;51.328;7.322;2023-02-13T12:50:05;100670.91;;;19.88;47.01
21594;BME280;10959;51.328;7.322;2023-02-13T12:52:46;100671.09;;;20.01;46.92
21594;BME280;10959;51.328;7.322;2023-02-13T12:55:29;100660.31;;;19.98;46.70
21594;BME280;10959;51.328;7.322;2023-02-13T12:58:11;100659.94;;;20.04;46.71
21594;BME280;10959;51.328;7.322;2023-02-13T13:00:50;100660.66;;;20.08;46.73
21594;BME280;10959;51.328;7.322;2023-02-13T13:03:34;100658.19;;;20.03;46.40
21594;BME280;10959;51.328;7.322;2023-02-13T13:06:09;100659.75;;;20.07;46.26
21594;BME280;10959;51.328;7.322;2023-02-13T13:11:53;100649.91;;;19.89;46.45
21594;BME280;10959;51.328;7.322;2023-02-13T13:14:26;100644.97;;;19.95;46.03
21594;BME280;10959;51.328;7.322;2023-02-13T13:17:03;100646.03;;;19.93;46.14
21594;BME280;10959;51.328;7.322;2023-02-13T13:19:40;100651.50;;;19.93;44.51